Time;durP1;ratioP1;P1;durP2;ratioP2;P2;SDS_P1;SDS_P2;PMS_P1;PMS_P2;Temp;Humidity;BMP_temperature;BMP_pressure;BME280_temperature;BME280_humidity;BME280_pressure;Samples;Min_cycle;Max_cycle;Signal;HPM_P1;HPM_P2
2023/01/14 00:01:31;;;;;;;;;7.75;3.00;;;;;6.77;83.74;100885.06;4966742;28;45263;-93
2023/01/14 00:03:57;;;;;;;;;3.00;3.00;;;;;7.08;83.72;100927.16;4968228;28;47061;-90
2023/01/14 00:06:25;;;;;;;;;3.00;2.00;;;;;6.80;84.36;100871.94;4964821;28;45527;-91
2023/01/14 00:08:56;;;;;;;;;1.50;1.50;;;;;6.63;84.04;100845.66;4965839;28;45409;-91
2023/01/14 00:14:07;;;;;;;;;3.00;3.00;;;;;8.30;84.39;101146.31;4985401;28;45247;-91
2023/01/14 00:16:32;;;;;;;;;2.50;2.00;;;;;7.76;84.55;101029.69;4967226;28;45267;-93
2023/01/14 00:18:58;;;;;;;;;4.50;3.00;;;;;5.94;84.69;100716.94;4974984;28;45364;-91
2023/01/14 00:21:24;;;;;;;;;2.25;2.25;;;;;7.43;84.57;100952.56;4979398;28;45017;-92
2023/01/14 00:23:53;;;;;;;;;3.75;2.00;;;;;7.60;84.52;100970.94;4979943;28;46846;-91
2023/01/14 00:26:20;;;;;;;;;2.00;1.50;;;;;6.66;84.60;100808.03;4988254;28;45321;-94
2023/01/14 00:28:47;;;;;;;;;2.25;1.25;;;;;8.33;85.44;101088.34;4968458;28;44657;-95
2023/01/14 00:31:19;;;;;;;;;2.00;1.25;;;;;8.35;84.78;101096.25;4967976;28;45251;-94
2023/01/14 00:33:45;;;;;;;;;3.25;2.25;;;;;6.26;84.73;100726.63;4969272;28;45501;-93
2023/01/14 00:36:15;;;;;;;;;5.00;3.00;;;;;7.47;85.35;100946.41;4980424;28;45155;-93
2023/01/14 00:38:41;;;;;;;;;1.00;1.00;;;;;6.52;85.80;100760.75;4980400;28;45322;-94
2023/01/14 00:41:07;;;;;;;;;3.00;2.00;;;;;7.77;86.22;100971.78;4973515;28;45367;-96
2023/01/14 00:43:36;;;;;;;;;2.75;1.75;;;;;7.96;86.58;101014.72;4977569;28;46969;-95
2023/01/14 00:46:07;;;;;;;;;2.00;1.50;;;;;6.33;86.40;100736.22;4984562;28;45354;-95
2023/01/14 00:48:35;;;;;;;;;2.00;2.00;;;;;6.91;87.34;100836.03;4978548;28;45290;-95
2023/01/14 00:51:02;;;;;;;;;3.00;2.25;;;;;7.25;87.25;100906.97;4972735;28;45239;-96
2023/01/14 00:53:31;;;;;;;;;2.00;1.00;;;;;7.02;87.14;100864.06;4977541;28;46203;-94
2023/01/14 00:55:57;;;;;;;;;0.50;0.00;;;;;6.65;87.37;100803.63;4974090;28;45246;-95
2023/01/14 00:58:22;;;;;;;;;2.00;2.00;;;;;6.83;87.21;100816.78;4970797;28;45321;-95
2023/01/14 01:00:48;;;;;;;;;3.75;3.00;;;;;6.72;87.47;100813.28;4977678;28;45273;-94
2023/01/14 01:03:16;;;;;;;;;4.00;2.00;;;;;7.39;87.92;100921.88;4967729;28;47089;-95
2023/01/14 01:05:41;;;;;;;;;2.50;2.00;;;;;6.97;88.11;100844.78;4981548;28;44904;-95
2023/01/14 01:08:11;;;;;;;;;3.50;3.00;;;;;8.06;88.05;101019.97;4983637;28;44755;-94
2023/01/14 01:10:36;;;;;;;;;3.50;3.00;;;;;6.98;88.04;100836.03;4983658;28;44890;-94
2023/01/14 01:13:04;;;;;;;;;2.75;2.75;;;;;7.06;88.72;100839.50;4986359;28;47513;-94
2023/01/14 01:15:34;;;;;;;;;3.50;3.50;;;;;8.06;88.73;101004.16;4986214;28;44685;-94
2023/01/14 01:18:01;;;;;;;;;2.00;2.00;;;;;8.06;88.60;100993.63;4983307;28;44727;-96
2023/01/14 01:20:28;;;;;;;;;4.25;3.25;;;;;7.91;88.88;100971.75;4981546;28;44978;-94
2023/01/14 01:22:54;;;;;;;;;4.75;3.50;;;;;8.09;89.08;100972.56;4964041;28;46362;-96
2023/01/14 01:25:20;;;;;;;;;3.25;3.25;;;;;8.09;89.06;100983.09;4959314;28;45283;-92
2023/01/14 01:27:48;;;;;;;;;2.25;2.25;;;;;8.09;88.82;100996.25;4958099;28;44706;-94
2023/01/14 01:30:17;;;;;;;;;4.00;4.00;;;;;8.11;89.07;100981.34;4992703;28;45319;-94
2023/01/14 01:32:43;;;;;;;;;5.00;4.00;;;;;8.11;89.62;100981.34;4969345;28;45331;-94
2023/01/14 01:35:09;;;;;;;;;6.00;4.25;;;;;8.11;89.17;100981.34;4969414;28;45429;-94
2023/01/14 01:37:35;;;;;;;;;5.00;4.00;;;;;8.13;89.26;100990.97;4983454;28;44694;-94
2023/01/14 01:40:01;;;;;;;;;5.00;5.00;;;;;7.14;89.35;100805.34;4980902;28;44829;-95
2023/01/14 01:42:33;;;;;;;;;3.75;2.75;;;;;7.60;89.78;100898.13;4979777;28;46093;-96
2023/01/14 01:45:31;;;;;;;;;2.25;2.25;;;;;8.17;89.66;100976.06;4970870;28;45456;-95
2023/01/14 01:48:26;;;;;;;;;2.25;2.00;;;;;6.66;89.26;100724.84;4961894;28;45268;-94
2023/01/14 01:50:58;;;;;;;;;3.75;3.75;;;;;6.12;89.41;100617.25;4970972;28;45534;-94
2023/01/14 02:00:26;;;;;;;;;4.00;3.25;;;;;7.44;89.62;100823.66;4913763;29;45009;-94
2023/01/14 02:03:11;;;;;;;;;3.25;2.00;;;;;8.30;89.62;100977.75;4907846;29;44812;-94
2023/01/14 02:05:56;;;;;;;;;2.00;2.00;;;;;5.78;89.92;100521.94;4892579;29;45279;-95
2023/01/14 02:08:24;;;;;;;;;5.00;3.00;;;;;7.82;90.39;100880.53;4895001;29;45268;-94
2023/01/14 02:11:25;;;;;;;;;3.50;2.50;;;;;8.36;90.74;100963.69;4910217;28;45455;-94
2023/01/14 02:14:18;;;;;;;;;2.00;2.00;;;;;8.39;90.07;100947.84;4830607;29;45482;-95
2023/01/14 02:17:21;;;;;;;;;2.00;2.00;;;;;7.35;90.81;100751.81;4831633;29;46848;-91
2023/01/14 02:20:11;;;;;;;;;1.00;1.00;;;;;8.47;91.19;100927.66;4836873;29;45017;-92
2023/01/14 02:23:12;;;;;;;;;1.25;1.25;;;;;8.35;90.68;100896.97;4835764;29;45359;-92
2023/01/14 02:26:08;;;;;;;;;2.00;1.25;;;;;7.53;90.50;100756.13;4777261;29;45714;-92
2023/01/14 02:29:22;;;;;;;;;1.50;1.50;;;;;6.39;90.90;100553.34;4782236;29;47238;-96
2023/01/14 02:32:05;;;;;;;;;2.00;2.00;;;;;6.69;91.48;100616.25;4794536;29;45455;-95
2023/01/14 02:35:05;;;;;;;;;2.00;2.00;;;;;8.57;91.24;100906.53;4782907;29;45309;-94
2023/01/14 02:37:52;;;;;;;;;1.00;1.00;;;;;7.03;90.94;100640.66;4818519;29;45239;-95
2023/01/14 02:40:56;;;;;;;;;1.00;1.00;;;;;7.68;91.15;100763.94;4814335;29;47181;-95
2023/01/14 02:46:44;;;;;;;;;0.25;0.25;;;;;6.99;91.19;100612.63;4837213;29;45422;-96
2023/01/14 02:49:28;;;;;;;;;1.00;1.00;;;;;8.78;90.90;100908.16;4891307;29;45600;-95
2023/01/14 02:52:06;;;;;;;;;3.00;1.00;;;;;7.76;90.98;100737.59;4896631;29;45289;-94
2023/01/14 02:54:35;;;;;;;;;0.75;0.75;;;;;7.78;91.39;100723.53;4877344;29;44802;-95
2023/01/14 02:57:15;;;;;;;;;0.00;0.00;;;;;8.54;90.80;100852.97;4876469;29;45333;-94
2023/01/14 03:00:12;;;;;;;;;1.00;1.00;;;;;8.39;90.76;100797.72;4883897;29;45326;-95
2023/01/14 03:06:18;;;;;;;;;2.00;1.00;;;;;9.03;90.98;100877.19;4951615;28;45276;-96
2023/01/14 03:12:13;;;;;;;;;0.00;0.00;;;;;8.10;90.71;100716.31;4953095;28;44816;-95
2023/01/14 03:14:50;;;;;;;;;3.00;1.00;;;;;8.79;90.96;100841.34;4937477;28;47360;-91
2023/01/14 03:17:43;;;;;;;;;1.50;0.00;;;;;9.13;90.62;100862.16;4923345;28;45365;-91
2023/01/14 03:20:19;;;;;;;;;0.00;0.00;;;;;8.04;91.12;100690.03;4925007;28;45307;-91
2023/01/14 03:22:49;;;;;;;;;0.00;0.00;;;;;8.17;91.02;100678.53;4928372;28;45437;-92
2023/01/14 03:25:16;;;;;;;;;0.00;0.00;;;;;7.63;90.90;100574.53;4931167;28;47020;-90
2023/01/14 03:27:45;;;;;;;;;2.00;0.00;;;;;7.79;90.62;100611.28;4926674;28;45343;-92
2023/01/14 03:33:23;;;;;;;;;2.00;0.25;;;;;9.00;91.04;100782.28;4868685;29;45868;-91
2023/01/14 03:35:51;;;;;;;;;0.25;0.25;;;;;6.80;90.80;100403.41;4854935;29;47625;-91
2023/01/14 03:38:29;;;;;;;;;0.00;0.00;;;;;7.69;90.75;100533.28;4858708;29;45404;-92
2023/01/14 03:40:59;;;;;;;;;0.25;0.25;;;;;8.01;90.65;100570.69;4900419;28;45526;-91
2023/01/14 03:43:51;;;;;;;;;2.00;1.00;;;;;8.78;90.66;100694.66;4905989;28;45458;-91
2023/01/14 03:46:17;;;;;;;;;2.00;1.25;;;;;8.32;90.15;100612.53;4900488;29;47347;-91
2023/01/14 03:48:43;;;;;;;;;1.00;0.00;;;;;8.19;90.43;100600.38;4902181;29;44981;-90
2023/01/14 03:51:22;;;;;;;;;0.75;0.75;;;;;9.25;90.79;100764.44;4896592;29;45315;-92
2023/01/14 03:53:57;;;;;;;;;2.50;0.50;;;;;8.29;90.88;100593.25;4886459;29;45345;-91
2023/01/14 03:56:38;;;;;;;;;2.25;0.50;;;;;9.25;91.17;100754.75;4887733;29;48231;-91
2023/01/14 03:59:32;;;;;;;;;1.25;1.00;;;;;7.29;90.44;100405.66;4889815;29;45298;-96
2023/01/14 04:02:00;;;;;;;;;4.25;1.75;;;;;8.33;90.82;100603.72;4879190;29;44647;-92
2023/01/14 04:04:26;;;;;;;;;0.75;0.25;;;;;9.25;91.02;100759.19;4888074;29;45439;-92
2023/01/14 04:06:52;;;;;;;;;3.00;1.00;;;;;8.23;90.83;100562.59;4918393;28;47339;-92
2023/01/14 04:09:17;;;;;;;;;0.25;0.25;;;;;8.74;90.36;100640.25;4917142;28;45432;-92
2023/01/14 04:11:43;;;;;;;;;2.00;2.00;;;;;7.80;90.63;100470.91;4965723;28;45341;-91
2023/01/14 04:16:56;;;;;;;;;1.00;1.00;;;;;8.59;91.03;100592.06;4990043;28;45416;-90
2023/01/14 04:19:28;;;;;;;;;0.50;0.50;;;;;7.16;91.10;100326.03;4969695;28;45358;-92
2023/01/14 04:21:57;;;;;;;;;2.00;1.00;;;;;7.74;90.85;100428.88;4977776;28;45368;-95
2023/01/14 04:24:27;;;;;;;;;1.00;1.00;;;;;7.20;90.54;100321.63;4991945;28;45189;-92
2023/01/14 04:26:56;;;;;;;;;2.00;1.00;;;;;8.27;91.25;100494.97;4971977;28;46404;-92
2023/01/14 04:29:22;;;;;;;;;5.00;3.00;;;;;7.91;90.70;100441.84;4975628;28;44808;-91
2023/01/14 04:31:48;;;;;;;;;1.00;1.00;;;;;8.77;90.67;100596.25;4966823;28;45331;-91
2023/01/14 04:34:13;;;;;;;;;3.25;3.25;;;;;8.97;90.94;100609.19;4964753;28;45248;-92
2023/01/14 04:36:39;;;;;;;;;2.50;2.00;;;;;7.53;90.79;100349.31;4963967;28;47315;-92
2023/01/14 04:39:04;;;;;;;;;3.50;2.00;;;;;8.27;91.05;100498.47;4964112;28;45305;-92
2023/01/14 04:44:47;;;;;;;;;;;;;;;;;;;;;
2023/01/14 04:47:16;;;;;;;;;1.00;1.00;;;;;8.44;90.92;100497.44;4982677;28;75183;-92
2023/01/14 04:49:42;;;;;;;;;1.75;1.00;;;;;7.39;90.73;100319.66;4964707;28;45331;-92
2023/01/14 04:52:11;;;;;;;;;0.50;0.00;;;;;8.34;90.67;100484.34;4964642;28;45358;-92
2023/01/14 04:54:37;;;;;;;;;3.50;2.75;;;;;8.04;91.09;100417.13;4968012;28;45337;-93
2023/01/14 04:57:15;;;;;;;;;1.50;1.50;;;;;7.37;90.98;100284.63;4966779;28;47135;-92
2023/01/14 04:59:40;;;;;;;;;5.75;2.00;;;;;8.90;91.13;100552.19;4965803;28;45215;-91
2023/01/14 05:02:24;;;;;;;;;1.00;1.00;;;;;8.83;90.90;100535.56;4963953;28;45187;-92
2023/01/14 05:08:24;;;;;;;;;2.50;1.75;;;;;7.08;90.53;100235.88;4971222;28;46037;-92
2023/01/14 05:11:12;;;;;;;;;;;;;;;;;;;;;
2023/01/14 05:23:31;;;;;;;;;0.00;0.00;;;;;8.57;90.32;100466.53;4983093;28;45536;-92
2023/01/14 05:26:20;;;;;;;;;2.25;2.25;;;;;8.47;90.60;100442.06;4944740;28;45227;-93
2023/01/14 05:28:46;;;;;;;;;2.50;1.00;;;;;9.42;90.62;100608.59;4975210;28;45419;-92
2023/01/14 05:31:23;;;;;;;;;1.00;1.00;;;;;8.06;90.14;100357.47;4979293;28;45412;-92
2023/01/14 05:33:51;;;;;;;;;2.00;1.00;;;;;7.45;90.24;100294.19;4952142;28;45401;-92
2023/01/14 05:36:18;;;;;;;;;3.00;1.00;;;;;8.24;89.88;100377.38;4963600;28;45253;-92
2023/01/14 05:38:47;;;;;;;;;3.00;1.00;;;;;8.56;90.20;100427.91;4962976;28;45240;-92
2023/01/14 05:41:33;;;;;;;;;3.25;2.75;;;;;9.42;90.46;100569.88;4947550;28;46829;-91
2023/01/14 05:46:45;;;;;;;;;1.00;1.00;;;;;8.88;90.19;100495.97;4984492;28;45382;-92
2023/01/14 05:49:10;;;;;;;;;4.50;2.75;;;;;8.16;90.15;100338.00;4968910;28;45414;-93
2023/01/14 05:52:22;;;;;;;;;2.00;2.00;;;;;8.38;89.73;100400.03;4972896;28;47425;-92
2023/01/14 05:55:01;;;;;;;;;1.75;1.00;;;;;8.88;90.01;100469.59;4984333;28;45329;-94
2023/01/14 05:57:33;;;;;;;;;2.50;1.00;;;;;9.42;90.30;100545.28;4971245;28;45301;-93
2023/01/14 05:59:58;;;;;;;;;3.50;1.00;;;;;8.89;90.09;100458.16;4969870;28;45566;-92
2023/01/14 06:08:07;;;;;;;;;1.75;1.00;;;;;8.99;89.79;100446.59;4984698;28;45369;-92
2023/01/14 06:10:37;;;;;;;;;4.00;2.00;;;;;7.75;89.47;100225.41;4968384;28;45579;-92
2023/01/14 06:13:06;;;;;;;;;1.00;1.00;;;;;8.22;89.83;100318.59;4968342;28;45542;-91
2023/01/14 06:15:51;;;;;;;;;;;;;;;;;;;;;
2023/01/14 06:25:42;;;;;;;;;0.00;0.00;;;;;9.37;89.10;100495.22;4985011;28;45401;-93
2023/01/14 06:28:24;;;;;;;;;2.25;1.00;;;;;7.97;88.82;100226.84;4966914;28;45430;-91
2023/01/14 06:30:56;;;;;;;;;1.00;1.00;;;;;8.82;89.83;100385.34;4967863;28;45207;-92
2023/01/14 06:34:06;;;;;;;;;;;;;;;;;;;;;
2023/01/14 06:39:52;;;;;;;;;6.00;2.00;;;;;6.92;88.72;100048.59;4986492;28;45219;-91
2023/01/14 06:42:18;;;;;;;;;0.00;0.00;;;;;8.27;89.33;100290.44;4949253;28;45392;-91
2023/01/14 06:44:44;;;;;;;;;3.25;1.00;;;;;8.79;89.58;100364.31;4948311;28;45272;-91
2023/01/14 06:47:29;;;;;;;;;2.50;2.50;;;;;7.34;88.96;100116.38;4949300;28;46839;-92
2023/01/14 06:49:59;;;;;;;;;3.00;1.00;;;;;7.03;88.63;100053.72;4952542;28;44722;-91
2023/01/14 06:52:25;;;;;;;;;1.00;1.00;;;;;8.34;89.40;100285.97;4952690;28;45211;-92
2023/01/14 06:54:52;;;;;;;;;3.25;1.25;;;;;8.15;89.25;100237.97;4950743;28;45273;-92
2023/01/14 06:57:18;;;;;;;;;0.50;0.00;;;;;8.34;89.56;100273.66;4948190;28;47280;-93
2023/01/14 06:59:44;;;;;;;;;0.00;0.00;;;;;9.11;89.67;100421.81;4952130;28;45193;-92
2023/01/14 07:02:12;;;;;;;;;2.75;2.75;;;;;9.37;89.61;100442.47;4951990;28;45225;-93
2023/01/14 07:04:38;;;;;;;;;1.00;0.00;;;;;8.30;89.72;100266.69;4944742;28;45339;-92
2023/01/14 07:10:36;;;;;;;;;0.50;0.50;;;;;7.08;88.91;100033.50;4973974;28;44820;-92
2023/01/14 07:13:02;;;;;;;;;1.00;1.00;;;;;8.88;89.53;100337.81;4961584;28;44823;-92
2023/01/14 07:15:36;;;;;;;;;1.50;1.50;;;;;9.40;89.44;100416.03;4970986;28;45402;-93
2023/01/14 07:18:02;;;;;;;;;2.50;1.25;;;;;7.18;89.44;100042.13;4933802;28;46706;-91
2023/01/14 07:20:38;;;;;;;;;4.00;1.00;;;;;8.89;89.54;100323.75;4948675;28;45689;-92
2023/01/14 07:23:07;;;;;;;;;2.00;2.00;;;;;8.50;89.35;100247.09;4951564;28;45459;-91
2023/01/14 07:25:45;;;;;;;;;1.50;1.50;;;;;8.89;89.73;100316.69;4933728;28;45270;-92
2023/01/14 07:28:14;;;;;;;;;0.75;0.75;;;;;8.89;89.83;100311.44;4949321;28;47462;-92
2023/01/14 07:30:45;;;;;;;;;3.50;0.50;;;;;9.14;89.80;100358.47;4954784;28;45471;-91
2023/01/14 07:33:55;;;;;;;;;1.00;0.75;;;;;9.40;90.32;100378.25;4969272;28;45461;-92
2023/01/14 07:36:25;;;;;;;;;1.00;1.00;;;;;8.19;90.12;100192.28;4876830;29;45612;-94
2023/01/14 07:38:57;;;;;;;;;2.25;1.00;;;;;8.53;89.96;100242.66;4885494;29;46380;-94
2023/01/14 07:41:31;;;;;;;;;5.00;3.50;;;;;6.95;90.30;99943.47;4875481;29;44891;-94
2023/01/14 07:44:07;;;;;;;;;0.75;0.50;;;;;8.87;90.73;100300.06;4860431;29;45198;-94
2023/01/14 07:46:38;;;;;;;;;0.75;0.75;;;;;9.38;90.63;100365.09;4857498;29;45146;-96
2023/01/14 07:49:05;;;;;;;;;1.00;1.00;;;;;9.38;90.29;100359.81;4878304;29;47989;-95
2023/01/14 07:51:36;;;;;;;;;0.25;0.25;;;;;9.39;90.23;100356.25;4877890;29;45298;-94
2023/01/14 07:54:36;;;;;;;;;1.50;1.00;;;;;8.88;90.31;100267.53;4880968;29;44813;-94
2023/01/14 07:59:40;;;;;;;;;1.75;1.75;;;;;8.39;90.13;100170.00;5020043;23;45133;-92
2023/01/14 08:02:30;;;;;;;;;3.50;0.00;;;;;7.42;89.94;100022.47;4937253;28;46326;-93
2023/01/14 08:05:09;;;;;;;;;1.00;1.00;;;;;9.30;90.70;100334.47;4957203;28;45215;-90
2023/01/14 08:07:38;;;;;;;;;0.75;0.75;;;;;8.91;90.49;100244.66;4944011;28;44940;-92
2023/01/14 09:18:41;;;;;;;;;1.00;1.00;;;;;9.63;93.46;100208.91;4996437;28;44667;-95
2023/01/14 09:21:07;;;;;;;;;1.00;1.00;;;;;9.67;93.64;100223.78;4984558;28;45434;-93
2023/01/14 09:23:37;;;;;;;;;1.00;1.00;;;;;9.69;93.57;100232.53;4978773;28;46880;-94
2023/01/14 09:26:04;;;;;;;;;1.50;1.00;;;;;9.71;93.58;100254.47;4985790;28;44822;-93
2023/01/14 09:28:30;;;;;;;;;0.25;0.25;;;;;8.78;93.61;100063.03;4984919;28;44886;-91
2023/01/14 09:31:20;;;;;;;;;1.00;1.00;;;;;9.75;93.62;100224.47;4972181;28;44990;-95
2023/01/14 09:33:52;;;;;;;;;0.75;0.75;;;;;8.41;93.49;100002.28;4969534;28;46120;-95
2023/01/14 09:36:35;;;;;;;;;0.25;0.25;;;;;8.93;93.64;100076.78;4985184;28;44767;-91
2023/01/14 09:39:00;;;;;;;;;0.50;0.50;;;;;8.95;93.88;100070.59;4969617;28;45467;-92
2023/01/14 09:41:37;;;;;;;;;1.50;0.50;;;;;8.36;93.45;99971.63;4972530;28;45513;-94
2023/01/14 09:44:13;;;;;;;;;2.00;2.00;;;;;7.90;94.22;99914.66;4963235;28;46588;-91
2023/01/14 09:46:39;;;;;;;;;0.75;0.75;;;;;9.86;94.57;100213.69;4944061;28;45257;-92
2023/01/14 09:49:13;;;;;;;;;2.50;0.75;;;;;9.15;93.79;100093.03;4949342;28;45413;-90
2023/01/14 09:52:02;;;;;;;;;3.00;0.00;;;;;9.91;94.01;100197.72;4951698;28;45190;-92
2023/01/14 09:54:48;;;;;;;;;1.50;1.00;;;;;9.93;94.06;100209.16;4970332;28;48036;-89
2023/01/14 09:57:37;;;;;;;;;0.75;0.75;;;;;9.19;93.91;100078.88;4986207;28;44959;-92
2023/01/14 10:00:11;;;;;;;;;2.00;1.00;;;;;9.62;93.41;100143.84;4962754;28;45544;-91
2023/01/14 10:03:09;;;;;;;;;3.00;2.00;;;;;10.02;93.73;100211.56;4973637;28;45429;-90
2023/01/14 10:05:39;;;;;;;;;1.50;1.00;;;;;9.38;93.79;100085.47;4961610;28;47419;-90
2023/01/14 10:08:18;;;;;;;;;1.00;1.00;;;;;10.12;93.56;100217.47;4990946;28;45495;-95
2023/01/14 10:10:49;;;;;;;;;1.00;1.00;;;;;9.12;94.00;100056.19;4988974;28;44774;-92
2023/01/14 10:13:22;;;;;;;;;1.00;1.00;;;;;8.54;93.40;99922.16;4936338;28;45431;-94
2023/01/14 10:15:53;;;;;;;;;0.00;0.00;;;;;8.29;93.59;99863.84;4979295;28;47204;-93
2023/01/14 10:18:28;;;;;;;;;1.00;1.00;;;;;10.11;93.48;100155.00;4981034;28;45886;-91
2023/01/14 10:20:59;;;;;;;;;1.00;1.00;;;;;9.11;93.43;99976.22;4976665;28;44629;-92
2023/01/14 10:23:37;;;;;;;;;1.50;1.50;;;;;8.86;93.31;99925.84;4953387;28;45366;-92
2023/01/14 10:26:21;;;;;;;;;1.00;1.00;;;;;10.38;93.43;100158.75;4935063;28;47314;-91
2023/01/14 10:28:49;;;;;;;;;1.00;1.00;;;;;10.42;93.16;100168.34;4980275;28;46012;-91
2023/01/14 10:31:28;;;;;;;;;0.25;0.00;;;;;9.71;93.66;100056.53;4965645;28;45607;-92
2023/01/14 10:33:57;;;;;;;;;1.00;1.00;;;;;7.89;93.04;99739.25;4955521;28;45597;-91
2023/01/14 10:36:27;;;;;;;;;0.00;0.00;;;;;8.55;93.26;99839.63;4963617;28;46866;-90
2023/01/14 10:38:53;;;;;;;;;0.75;0.75;;;;;9.07;93.46;99922.69;4965201;28;45360;-90
2023/01/14 10:41:48;;;;;;;;;0.75;0.75;;;;;7.78;93.60;99709.69;4960236;28;45345;-91
2023/01/14 10:44:17;;;;;;;;;1.00;1.00;;;;;9.11;93.19;99934.03;4964998;28;45301;-91
2023/01/14 10:50:17;;;;;;;;;0.00;0.00;;;;;9.97;93.99;100065.56;4968544;28;45270;-92
2023/01/14 10:56:00;;;;;;;;;1.00;1.00;;;;;10.49;94.28;100125.00;4962208;28;45358;-92
2023/01/14 10:58:30;;;;;;;;;2.75;1.75;;;;;10.52;94.29;100117.91;4944996;28;47083;-92
2023/01/14 11:01:03;;;;;;;;;0.75;0.75;;;;;10.20;93.82;100080.81;4943404;28;45458;-92
2023/01/14 11:03:32;;;;;;;;;0.25;0.25;;;;;10.54;94.24;100116.09;4943657;28;45498;-91
2023/01/14 11:06:09;;;;;;;;;1.25;1.25;;;;;10.55;94.19;100105.50;4947387;28;45324;-91
2023/01/14 11:08:50;;;;;;;;;0.50;0.50;;;;;10.04;94.30;100001.16;4943646;28;46363;-91
2023/01/14 11:11:24;;;;;;;;;1.50;1.50;;;;;9.53;94.31;99920.66;4958591;28;45577;-92
2023/01/14 11:13:54;;;;;;;;;1.00;1.00;;;;;10.56;94.38;100091.34;4977760;28;45341;-91
2023/01/14 11:16:27;;;;;;;;;1.00;1.00;;;;;10.59;94.49;100085.13;4983168;28;44833;-91
2023/01/14 11:18:56;;;;;;;;;1.00;1.00;;;;;10.61;94.58;100075.34;4974513;28;47135;-90
2023/01/14 11:21:34;;;;;;;;;1.00;1.00;;;;;9.37;94.08;99864.81;4969735;28;45278;-89
2023/01/14 11:24:07;;;;;;;;;3.00;2.00;;;;;10.13;94.43;99979.78;4967234;28;45468;-91
2023/01/14 11:26:39;;;;;;;;;3.00;1.75;;;;;9.63;94.25;99892.28;4974232;28;45321;-90
2023/01/14 11:29:26;;;;;;;;;0.75;0.75;;;;;10.14;94.14;99973.59;4980920;28;47200;-91
2023/01/14 11:32:06;;;;;;;;;1.75;1.50;;;;;9.67;94.67;99877.22;4991681;28;45313;-91
2023/01/14 11:34:38;;;;;;;;;0.75;0.75;;;;;8.94;94.09;99736.75;4967748;28;45368;-90
2023/01/14 11:37:19;;;;;;;;;1.25;1.25;;;;;10.29;94.45;99947.66;4964288;28;45390;-90
2023/01/14 11:39:52;;;;;;;;;3.00;1.50;;;;;8.64;94.45;99697.13;4981039;28;46244;-91
2023/01/14 11:42:22;;;;;;;;;2.00;1.00;;;;;10.16;94.73;99920.75;4963854;28;45532;-89
2023/01/14 11:45:07;;;;;;;;;4.25;2.00;;;;;10.71;94.31;100009.91;4984104;28;44798;-90
2023/01/14 11:47:48;;;;;;;;;0.00;0.00;;;;;9.94;94.44;99909.91;4961477;28;45243;-89
2023/01/14 11:50:26;;;;;;;;;3.50;1.75;;;;;10.45;94.51;99959.53;4979672;28;46209;-91
2023/01/14 11:53:16;;;;;;;;;2.25;1.00;;;;;9.21;94.01;99734.28;4954497;28;45274;-90
2023/01/14 11:55:47;;;;;;;;;2.00;2.00;;;;;10.72;95.22;99998.41;4968293;28;45366;-89
2023/01/14 11:58:20;;;;;;;;;3.25;2.00;;;;;10.75;94.96;99993.03;4962533;28;45481;-91
2023/01/14 12:01:01;;;;;;;;;1.50;1.50;;;;;10.48;94.30;99927.75;4980580;28;45307;-90
2023/01/14 12:03:46;;;;;;;;;1.50;1.25;;;;;10.75;95.07;99958.66;4964013;28;45352;-91
2023/01/14 12:06:27;;;;;;;;;0.25;0.25;;;;;10.37;94.94;99884.94;4963487;28;45525;-91
2023/01/14 12:08:59;;;;;;;;;1.00;1.00;;;;;10.28;94.67;99861.41;4971342;28;45486;-91
2023/01/14 12:11:39;;;;;;;;;1.00;1.00;;;;;8.26;94.44;99537.44;4967576;28;47982;-89
2023/01/14 12:17:53;;;;;;;;;2.00;2.00;;;;;10.86;94.83;99918.69;4921939;28;45564;-93
2023/01/14 12:20:49;;;;;;;;;2.50;2.50;;;;;10.00;94.44;99793.56;4909116;28;45194;-91
2023/01/14 12:23:31;;;;;;;;;3.75;1.50;;;;;10.17;94.50;99789.56;4826714;29;46891;-92
2023/01/14 12:26:35;;;;;;;;;1.00;1.00;;;;;10.45;94.47;99834.50;4832529;29;45481;-92
2023/01/14 15:19:55;;;;;;;;;;;;;;;;;;;;;
2023/01/14 15:22:31;;;;;;;;;0.00;0.00;;;;;10.90;97.64;99516.72;4930363;28;68465;-92
2023/01/14 15:25:01;;;;;;;;;0.50;0.50;;;;;10.43;97.91;99448.88;4926605;28;46990;-93
2023/01/14 15:27:55;;;;;;;;;1.00;1.00;;;;;11.70;98.60;99642.38;4914393;28;45546;-92
2023/01/14 15:30:27;;;;;;;;;0.25;0.25;;;;;9.34;98.09;99249.59;4919702;28;45447;-91
2023/01/14 15:33:01;;;;;;;;;1.00;1.00;;;;;9.40;98.17;99255.50;4926230;28;45507;-96
2023/01/14 15:35:37;;;;;;;;;2.75;1.50;;;;;11.74;98.75;99651.91;4903980;28;45603;-92
2023/01/14 15:38:12;;;;;;;;;1.00;1.00;;;;;10.83;98.73;99486.97;4926220;28;45508;-92
2023/01/14 15:40:49;;;;;;;;;0.00;0.00;;;;;10.59;98.55;99438.56;4929814;28;45574;-94
2023/01/14 15:43:45;;;;;;;;;2.00;2.00;;;;;11.73;98.89;99629.00;4921438;28;45312;-91
2023/01/14 15:56:43;;;;;;;;;1.00;1.00;;;;;11.74;98.56;99633.38;4941004;28;47163;-92
2023/01/14 16:02:26;;;;;;;;;0.25;0.25;;;;;10.75;98.98;99481.13;4945448;28;44773;-96
2023/01/14 16:05:17;;;;;;;;;2.00;2.00;;;;;11.72;99.06;99611.38;4905505;28;45651;-94
2023/01/14 16:07:43;;;;;;;;;0.00;0.00;;;;;10.57;98.57;99419.28;4903645;29;47040;-92
2023/01/14 16:10:20;;;;;;;;;1.00;1.00;;;;;11.73;98.89;99624.56;4885872;29;45440;-92
2023/01/14 16:12:47;;;;;;;;;0.25;0.25;;;;;10.86;98.86;99472.78;4888673;29;45528;-92
2023/01/14 16:15:22;;;;;;;;;0.50;0.00;;;;;11.71;99.46;99621.13;4893080;29;45583;-92
2023/01/14 16:18:21;;;;;;;;;1.00;1.00;;;;;10.14;99.26;99339.88;4885863;29;46897;-93
2023/01/14 16:24:42;;;;;;;;;1.00;1.00;;;;;11.71;99.31;99605.25;4877603;29;44729;-94
2023/01/14 16:30:18;;;;;;;;;2.00;0.75;;;;;11.48;99.73;99544.44;5029727;23;45958;-91
2023/01/14 16:32:45;;;;;;;;;0.75;0.75;;;;;9.42;99.31;99200.91;4941556;28;45312;-90
2023/01/14 16:35:10;;;;;;;;;0.00;0.00;;;;;9.34;100.00;99179.25;4940737;28;44745;-93
2023/01/14 16:37:41;;;;;;;;;0.00;0.00;;;;;11.48;100.00;99540.00;4940359;28;44822;-96
2023/01/14 16:40:26;;;;;;;;;0.50;0.25;;;;;10.78;100.00;99444.03;4921367;28;45971;-96
2023/01/14 16:42:55;;;;;;;;;0.00;0.00;;;;;10.80;100.00;99459.81;4938523;28;45277;-94
2023/01/14 16:45:28;;;;;;;;;0.00;0.00;;;;;10.26;99.99;99346.47;4945752;28;44695;-94
2023/01/14 16:48:04;;;;;;;;;1.00;1.00;;;;;11.41;100.00;99559.69;4940138;28;45248;-96
2023/01/14 16:50:49;;;;;;;;;0.00;0.00;;;;;8.93;99.89;99143.81;4942917;28;45301;-94
2023/01/14 16:53:21;;;;;;;;;2.25;0.50;;;;;11.19;100.00;99520.00;4926517;28;45165;-95
2023/01/14 16:55:47;;;;;;;;;1.00;1.00;;;;;10.34;99.75;99372.63;4940335;28;44666;-94
2023/01/14 16:58:13;;;;;;;;;2.00;2.00;;;;;9.94;100.00;99302.78;4938691;28;44847;-95
2023/01/14 17:00:38;;;;;;;;;0.00;0.00;;;;;9.54;99.84;99225.13;4938686;28;46847;-95
2023/01/14 17:03:24;;;;;;;;;0.00;0.00;;;;;11.69;100.00;99590.34;4939294;28;45237;-94
2023/01/14 17:05:52;;;;;;;;;1.00;1.00;;;;;10.10;100.00;99316.28;4953141;28;45333;-95
2023/01/14 17:08:28;;;;;;;;;0.75;0.75;;;;;11.70;99.98;99573.53;4920766;28;45347;-96
2023/01/14 17:10:53;;;;;;;;;1.00;1.00;;;;;9.29;99.64;99167.97;4929168;28;47040;-95
2023/01/14 17:13:19;;;;;;;;;1.75;1.00;;;;;10.78;99.84;99422.00;4932082;28;45339;-95
2023/01/14 17:15:44;;;;;;;;;1.75;1.00;;;;;10.82;99.96;99439.47;4938572;28;44736;-96
2023/01/14 17:18:16;;;;;;;;;1.00;1.00;;;;;11.48;100.00;99528.56;4928837;28;44936;-96
2023/01/14 17:21:12;;;;;;;;;1.50;1.00;;;;;9.62;99.76;99230.97;4928075;28;47187;-95
2023/01/14 17:27:02;;;;;;;;;0.50;0.50;;;;;10.44;99.40;99339.63;4963301;28;44708;-96
2023/01/14 17:29:37;;;;;;;;;3.75;1.00;;;;;11.80;100.00;99571.41;4966414;28;44748;-96
2023/01/14 17:35:45;;;;;;;;;1.25;1.00;;;;;11.32;100.00;99502.72;4975632;28;44581;-96
2023/01/14 17:38:11;;;;;;;;;0.50;0.50;;;;;10.52;99.75;99367.53;4958333;28;44755;-96
2023/01/14 17:54:16;;;;;;;;;1.00;1.00;;;;;11.88;100.00;99554.25;4925653;28;45366;-96
2023/01/14 17:56:51;;;;;;;;;1.00;1.00;;;;;10.57;99.85;99337.38;4885360;29;46833;-93
2023/01/14 17:59:20;;;;;;;;;1.50;0.75;;;;;11.73;100.00;99523.97;4900153;28;45503;-96
2023/01/14 18:02:22;;;;;;;;;1.00;1.00;;;;;10.60;100.00;99320.53;4885646;29;44723;-95
2023/01/14 18:15:54;;;;;;;;;1.25;1.25;;;;;11.51;100.00;99457.00;5011241;23;45397;-94
2023/01/14 18:18:22;;;;;;;;;1.25;1.25;;;;;11.02;100.00;99365.53;4978525;28;45359;-95
2023/01/14 18:21:18;;;;;;;;;2.50;2.00;;;;;11.27;100.00;99420.03;4961821;28;44857;-94
2023/01/14 18:23:48;;;;;;;;;0.75;0.50;;;;;10.66;100.00;99307.09;4962497;28;45403;-96